sensor_id;sensor_type;location;lat;lon;timestamp;temperature;humidity
38380;DHT22;38377;47.418;18.882;2023-05-07T00:00:08;13.00;99.90
38380;DHT22;38377;47.418;18.882;2023-05-07T00:02:35;12.80;99.90
38380;DHT22;38377;47.418;18.882;2023-05-07T00:05:01;12.70;99.90
38380;DHT22;38377;47.418;18.882;2023-05-07T00:07:28;12.60;99.90
38380;DHT22;38377;47.418;18.882;2023-05-07T00:09:53;12.60;99.90
38380;DHT22;38377;47.418;18.882;2023-05-07T00:12:19;12.50;99.90
38380;DHT22;38377;47.418;18.882;2023-05-07T00:14:45;12.50;99.90
38380;DHT22;38377;47.418;18.882;2023-05-07T00:17:11;12.40;99.90
38380;DHT22;38377;47.418;18.882;2023-05-07T00:19:36;12.40;99.90
38380;DHT22;38377;47.418;18.882;2023-05-07T00:22:02;12.40;99.90
38380;DHT22;38377;47.418;18.882;2023-05-07T00:24:28;12.50;99.90
38380;DHT22;38377;47.418;18.882;2023-05-07T00:26:53;12.40;99.90
38380;DHT22;38377;47.418;18.882;2023-05-07T00:29:19;12.30;99.90
38380;DHT22;38377;47.418;18.882;2023-05-07T00:31:45;12.30;99.90
38380;DHT22;38377;47.418;18.882;2023-05-07T00:34:10;12.20;99.90
38380;DHT22;38377;47.418;18.882;2023-05-07T00:36:36;12.20;99.90
38380;DHT22;38377;47.418;18.882;2023-05-07T00:39:02;12.20;99.90
38380;DHT22;38377;47.418;18.882;2023-05-07T00:41:29;12.20;99.90
38380;DHT22;38377;47.418;18.882;2023-05-07T00:43:56;12.20;99.90
38380;DHT22;38377;47.418;18.882;2023-05-07T00:46:23;12.10;99.90
38380;DHT22;38377;47.418;18.882;2023-05-07T00:48:50;12.00;99.90
38380;DHT22;38377;47.418;18.882;2023-05-07T00:51:17;11.90;99.90
38380;DHT22;38377;47.418;18.882;2023-05-07T00:53:43;11.90;99.90
38380;DHT22;38377;47.418;18.882;2023-05-07T00:56:10;11.80;99.90
38380;DHT22;38377;47.418;18.882;2023-05-07T00:58:36;11.80;99.90
38380;DHT22;38377;47.418;18.882;2023-05-07T01:01:02;11.70;99.90
38380;DHT22;38377;47.418;18.882;2023-05-07T01:03:28;11.70;99.90
38380;DHT22;38377;47.418;18.882;2023-05-07T01:05:55;11.70;99.90
38380;DHT22;38377;47.418;18.882;2023-05-07T01:08:23;11.70;99.90
38380;DHT22;38377;47.418;18.882;2023-05-07T01:10:51;11.70;99.90
38380;DHT22;38377;47.418;18.882;2023-05-07T01:13:17;11.70;99.90
38380;DHT22;38377;47.418;18.882;2023-05-07T01:15:43;11.70;99.90
38380;DHT22;38377;47.418;18.882;2023-05-07T01:18:10;11.70;99.90
38380;DHT22;38377;47.418;18.882;2023-05-07T01:20:35;11.80;99.90
38380;DHT22;38377;47.418;18.882;2023-05-07T01:23:01;11.90;99.90
38380;DHT22;38377;47.418;18.882;2023-05-07T01:25:28;11.90;99.90
38380;DHT22;38377;47.418;18.882;2023-05-07T01:27:54;11.80;99.90
38380;DHT22;38377;47.418;18.882;2023-05-07T01:30:21;11.80;99.90
38380;DHT22;38377;47.418;18.882;2023-05-07T01:33:00;11.80;99.90
38380;DHT22;38377;47.418;18.882;2023-05-07T01:35:34;11.70;99.90
38380;DHT22;38377;47.418;18.882;2023-05-07T01:38:01;11.60;99.90
38380;DHT22;38377;47.418;18.882;2023-05-07T01:40:29;11.60;99.90
38380;DHT22;38377;47.418;18.882;2023-05-07T01:42:55;11.50;99.90
38380;DHT22;38377;47.418;18.882;2023-05-07T01:45:22;11.50;99.90
38380;DHT22;38377;47.418;18.882;2023-05-07T01:47:48;11.60;99.90
38380;DHT22;38377;47.418;18.882;2023-05-07T01:50:16;11.50;99.90
38380;DHT22;38377;47.418;18.882;2023-05-07T01:52:43;11.50;99.90
38380;DHT22;38377;47.418;18.882;2023-05-07T01:55:09;11.50;99.90
38380;DHT22;38377;47.418;18.882;2023-05-07T01:57:35;11.50;99.90
38380;DHT22;38377;47.418;18.882;2023-05-07T02:00:00;11.60;99.90
38380;DHT22;38377;47.418;18.882;2023-05-07T02:02:28;11.50;99.90
38380;DHT22;38377;47.418;18.882;2023-05-07T02:04:53;11.50;99.90
38380;DHT22;38377;47.418;18.882;2023-05-07T02:07:19;11.40;99.90
38380;DHT22;38377;47.418;18.882;2023-05-07T02:09:45;11.40;99.90
38380;DHT22;38377;47.418;18.882;2023-05-07T02:12:10;11.40;99.90
38380;DHT22;38377;47.418;18.882;2023-05-07T02:14:36;11.40;99.90
38380;DHT22;38377;47.418;18.882;2023-05-07T02:17:02;11.30;99.90
38380;DHT22;38377;47.418;18.882;2023-05-07T02:19:27;11.30;99.90
38380;DHT22;38377;47.418;18.882;2023-05-07T02:21:53;11.20;99.90
38380;DHT22;38377;47.418;18.882;2023-05-07T02:24:19;11.30;99.90
38380;DHT22;38377;47.418;18.882;2023-05-07T02:26:45;11.20;99.90
38380;DHT22;38377;47.418;18.882;2023-05-07T02:29:11;11.10;99.90
38380;DHT22;38377;47.418;18.882;2023-05-07T02:31:36;11.00;99.90
38380;DHT22;38377;47.418;18.882;2023-05-07T02:34:02;11.00;99.90
38380;DHT22;38377;47.418;18.882;2023-05-07T02:36:29;10.90;99.90
38380;DHT22;38377;47.418;18.882;2023-05-07T02:38:54;10.90;99.90
38380;DHT22;38377;47.418;18.882;2023-05-07T02:41:20;10.80;99.90
38380;DHT22;38377;47.418;18.882;2023-05-07T02:43:49;10.80;99.90
38380;DHT22;38377;47.418;18.882;2023-05-07T02:46:14;10.80;99.90
38380;DHT22;38377;47.418;18.882;2023-05-07T02:48:41;10.80;99.90
38380;DHT22;38377;47.418;18.882;2023-05-07T02:51:06;10.80;99.90
38380;DHT22;38377;47.418;18.882;2023-05-07T02:53:32;10.90;99.90
38380;DHT22;38377;47.418;18.882;2023-05-07T02:56:00;11.00;99.90
38380;DHT22;38377;47.418;18.882;2023-05-07T02:58:26;11.30;99.90
38380;DHT22;38377;47.418;18.882;2023-05-07T03:00:52;11.60;99.90
38380;DHT22;38377;47.418;18.882;2023-05-07T03:03:20;11.90;99.90
38380;DHT22;38377;47.418;18.882;2023-05-07T03:05:45;12.10;99.90
38380;DHT22;38377;47.418;18.882;2023-05-07T03:08:11;12.30;99.90
38380;DHT22;38377;47.418;18.882;2023-05-07T03:10:37;12.40;99.90
38380;DHT22;38377;47.418;18.882;2023-05-07T03:13:04;12.40;99.90
38380;DHT22;38377;47.418;18.882;2023-05-07T03:15:30;12.50;99.90
38380;DHT22;38377;47.418;18.882;2023-05-07T03:17:56;12.60;99.90
38380;DHT22;38377;47.418;18.882;2023-05-07T03:20:21;12.60;99.90
38380;DHT22;38377;47.418;18.882;2023-05-07T03:22:47;12.70;99.90
38380;DHT22;38377;47.418;18.882;2023-05-07T03:25:13;12.60;99.90
38380;DHT22;38377;47.418;18.882;2023-05-07T03:27:40;12.70;99.90
38380;DHT22;38377;47.418;18.882;2023-05-07T03:30:07;12.70;99.90
38380;DHT22;38377;47.418;18.882;2023-05-07T03:32:34;12.70;99.90
38380;DHT22;38377;47.418;18.882;2023-05-07T03:35:01;12.80;99.90
38380;DHT22;38377;47.418;18.882;2023-05-07T03:37:26;12.80;99.90
38380;DHT22;38377;47.418;18.882;2023-05-07T03:39:52;12.80;99.90
38380;DHT22;38377;47.418;18.882;2023-05-07T03:42:17;12.80;99.90
38380;DHT22;38377;47.418;18.882;2023-05-07T03:44:43;12.90;99.90
38380;DHT22;38377;47.418;18.882;2023-05-07T03:47:09;12.90;99.90
38380;DHT22;38377;47.418;18.882;2023-05-07T03:49:36;12.90;99.90
38380;DHT22;38377;47.418;18.882;2023-05-07T03:52:02;12.90;99.90
38380;DHT22;38377;47.418;18.882;2023-05-07T03:54:27;12.90;99.90
38380;DHT22;38377;47.418;18.882;2023-05-07T03:56:53;12.90;99.90
38380;DHT22;38377;47.418;18.882;2023-05-07T03:59:19;12.80;99.90
38380;DHT22;38377;47.418;18.882;2023-05-07T04:01:47;12.80;99.90
38380;DHT22;38377;47.418;18.882;2023-05-07T04:04:14;12.90;99.90
38380;DHT22;38377;47.418;18.882;2023-05-07T04:06:40;12.90;99.90
38380;DHT22;38377;47.418;18.882;2023-05-07T04:09:06;12.90;99.90
38380;DHT22;38377;47.418;18.882;2023-05-07T04:11:32;12.90;99.90
38380;DHT22;38377;47.418;18.882;2023-05-07T04:13:58;13.00;99.90
38380;DHT22;38377;47.418;18.882;2023-05-07T04:16:24;13.00;99.90
38380;DHT22;38377;47.418;18.882;2023-05-07T04:18:49;13.10;99.90
38380;DHT22;38377;47.418;18.882;2023-05-07T04:21:20;13.20;99.90
38380;DHT22;38377;47.418;18.882;2023-05-07T04:23:48;13.30;99.90
38380;DHT22;38377;47.418;18.882;2023-05-07T04:26:15;13.40;99.90
38380;DHT22;38377;47.418;18.882;2023-05-07T04:28:41;13.60;99.90
38380;DHT22;38377;47.418;18.882;2023-05-07T04:31:07;13.80;99.90
38380;DHT22;38377;47.418;18.882;2023-05-07T04:33:33;14.20;99.90
38380;DHT22;38377;47.418;18.882;2023-05-07T04:36:01;14.70;99.90
38380;DHT22;38377;47.418;18.882;2023-05-07T04:38:32;15.10;99.90
38380;DHT22;38377;47.418;18.882;2023-05-07T04:41:08;15.30;99.90
38380;DHT22;38377;47.418;18.882;2023-05-07T04:43:34;15.50;99.90
38380;DHT22;38377;47.418;18.882;2023-05-07T04:46:00;15.50;99.90
38380;DHT22;38377;47.418;18.882;2023-05-07T04:48:26;15.60;99.90
38380;DHT22;38377;47.418;18.882;2023-05-07T04:50:52;15.60;99.90
38380;DHT22;38377;47.418;18.882;2023-05-07T04:53:18;15.70;99.90
38380;DHT22;38377;47.418;18.882;2023-05-07T04:55:44;15.70;99.90
38380;DHT22;38377;47.418;18.882;2023-05-07T04:58:13;15.70;99.90
38380;DHT22;38377;47.418;18.882;2023-05-07T05:00:39;15.70;99.90
38380;DHT22;38377;47.418;18.882;2023-05-07T05:03:06;15.60;99.90
38380;DHT22;38377;47.418;18.882;2023-05-07T05:05:32;15.50;99.90
38380;DHT22;38377;47.418;18.882;2023-05-07T05:07:58;15.50;99.90
38380;DHT22;38377;47.418;18.882;2023-05-07T05:10:23;15.60;99.90
38380;DHT22;38377;47.418;18.882;2023-05-07T05:12:50;15.70;99.90
38380;DHT22;38377;47.418;18.882;2023-05-07T05:15:16;15.70;99.90
38380;DHT22;38377;47.418;18.882;2023-05-07T05:17:41;15.80;99.90
38380;DHT22;38377;47.418;18.882;2023-05-07T05:20:07;15.80;99.90
38380;DHT22;38377;47.418;18.882;2023-05-07T05:22:34;15.80;99.90
38380;DHT22;38377;47.418;18.882;2023-05-07T05:25:00;15.80;99.90
38380;DHT22;38377;47.418;18.882;2023-05-07T05:27:26;15.90;99.90
38380;DHT22;38377;47.418;18.882;2023-05-07T05:29:52;15.90;99.90
38380;DHT22;38377;47.418;18.882;2023-05-07T05:32:20;16.00;99.90
38380;DHT22;38377;47.418;18.882;2023-05-07T05:34:46;16.20;99.90
38380;DHT22;38377;47.418;18.882;2023-05-07T05:37:12;16.40;99.90
38380;DHT22;38377;47.418;18.882;2023-05-07T05:39:37;16.60;99.90
38380;DHT22;38377;47.418;18.882;2023-05-07T05:42:03;16.90;99.90
38380;DHT22;38377;47.418;18.882;2023-05-07T05:44:29;17.20;99.90
38380;DHT22;38377;47.418;18.882;2023-05-07T05:46:54;17.50;99.90
38380;DHT22;38377;47.418;18.882;2023-05-07T05:49:23;17.60;99.90
38380;DHT22;38377;47.418;18.882;2023-05-07T05:51:48;17.60;99.90
38380;DHT22;38377;47.418;18.882;2023-05-07T05:54:14;17.60;99.90
38380;DHT22;38377;47.418;18.882;2023-05-07T05:56:41;17.50;99.90
38380;DHT22;38377;47.418;18.882;2023-05-07T05:59:06;17.30;99.90
38380;DHT22;38377;47.418;18.882;2023-05-07T06:01:32;17.30;99.90
38380;DHT22;38377;47.418;18.882;2023-05-07T06:03:58;17.20;99.90
38380;DHT22;38377;47.418;18.882;2023-05-07T06:06:24;17.30;99.90
38380;DHT22;38377;47.418;18.882;2023-05-07T06:08:51;17.40;99.90
38380;DHT22;38377;47.418;18.882;2023-05-07T06:11:16;17.40;99.90
38380;DHT22;38377;47.418;18.882;2023-05-07T06:13:42;17.50;99.90
38380;DHT22;38377;47.418;18.882;2023-05-07T06:16:07;17.60;99.90
38380;DHT22;38377;47.418;18.882;2023-05-07T06:18:33;17.70;99.90
38380;DHT22;38377;47.418;18.882;2023-05-07T06:21:01;17.80;99.90
38380;DHT22;38377;47.418;18.882;2023-05-07T06:23:27;17.80;99.90
38380;DHT22;38377;47.418;18.882;2023-05-07T06:25:52;18.10;99.90
38380;DHT22;38377;47.418;18.882;2023-05-07T06:28:18;18.30;99.90
38380;DHT22;38377;47.418;18.882;2023-05-07T06:30:44;18.50;99.90
38380;DHT22;38377;47.418;18.882;2023-05-07T06:33:10;18.60;99.90
38380;DHT22;38377;47.418;18.882;2023-05-07T06:35:37;18.70;99.90
38380;DHT22;38377;47.418;18.882;2023-05-07T06:38:02;18.70;99.90
38380;DHT22;38377;47.418;18.882;2023-05-07T06:40:28;18.70;99.90
38380;DHT22;38377;47.418;18.882;2023-05-07T06:42:54;18.70;99.90
38380;DHT22;38377;47.418;18.882;2023-05-07T06:45:19;18.60;99.90
38380;DHT22;38377;47.418;18.882;2023-05-07T06:47:45;18.60;99.90
38380;DHT22;38377;47.418;18.882;2023-05-07T06:50:11;18.50;99.90
38380;DHT22;38377;47.418;18.882;2023-05-07T06:52:37;18.60;99.90
38380;DHT22;38377;47.418;18.882;2023-05-07T06:55:03;18.60;99.90
38380;DHT22;38377;47.418;18.882;2023-05-07T06:57:29;18.60;99.90
38380;DHT22;38377;47.418;18.882;2023-05-07T06:59:54;18.60;99.90
38380;DHT22;38377;47.418;18.882;2023-05-07T07:02:20;18.50;99.90
38380;DHT22;38377;47.418;18.882;2023-05-07T07:04:46;18.50;99.90
38380;DHT22;38377;47.418;18.882;2023-05-07T07:07:12;18.60;99.90
38380;DHT22;38377;47.418;18.882;2023-05-07T07:09:37;18.70;99.90
38380;DHT22;38377;47.418;18.882;2023-05-07T07:12:03;18.70;99.90
38380;DHT22;38377;47.418;18.882;2023-05-07T07:14:30;18.80;99.90
38380;DHT22;38377;47.418;18.882;2023-05-07T07:16:56;18.80;99.90
38380;DHT22;38377;47.418;18.882;2023-05-07T07:19:21;18.80;99.90
38380;DHT22;38377;47.418;18.882;2023-05-07T07:21:47;18.90;99.90
38380;DHT22;38377;47.418;18.882;2023-05-07T07:24:14;18.90;99.90
38380;DHT22;38377;47.418;18.882;2023-05-07T07:26:44;18.80;99.90
38380;DHT22;38377;47.418;18.882;2023-05-07T07:29:10;18.80;99.90
38380;DHT22;38377;47.418;18.882;2023-05-07T07:31:35;18.70;99.90
38380;DHT22;38377;47.418;18.882;2023-05-07T07:34:01;18.50;99.90
38380;DHT22;38377;47.418;18.882;2023-05-07T07:36:27;18.30;99.90
38380;DHT22;38377;47.418;18.882;2023-05-07T07:38:53;18.30;99.90
38380;DHT22;38377;47.418;18.882;2023-05-07T07:41:19;18.20;99.90
38380;DHT22;38377;47.418;18.882;2023-05-07T07:43:45;18.30;99.90
38380;DHT22;38377;47.418;18.882;2023-05-07T07:46:12;18.50;99.90
38380;DHT22;38377;47.418;18.882;2023-05-07T07:48:37;18.50;99.90
38380;DHT22;38377;47.418;18.882;2023-05-07T07:51:03;18.60;99.90
38380;DHT22;38377;47.418;18.882;2023-05-07T07:53:29;18.50;99.90
38380;DHT22;38377;47.418;18.882;2023-05-07T07:55:55;18.40;99.90
38380;DHT22;38377;47.418;18.882;2023-05-07T07:58:21;18.20;99.90
38380;DHT22;38377;47.418;18.882;2023-05-07T08:00:47;18.00;99.90
38380;DHT22;38377;47.418;18.882;2023-05-07T08:03:14;17.90;99.90
38380;DHT22;38377;47.418;18.882;2023-05-07T08:05:42;17.90;99.90
38380;DHT22;38377;47.418;18.882;2023-05-07T08:08:07;17.80;99.90
38380;DHT22;38377;47.418;18.882;2023-05-07T08:10:33;17.80;99.90
38380;DHT22;38377;47.418;18.882;2023-05-07T08:13:00;17.90;99.90
38380;DHT22;38377;47.418;18.882;2023-05-07T08:15:27;17.90;99.90
38380;DHT22;38377;47.418;18.882;2023-05-07T08:17:52;18.00;99.90
38380;DHT22;38377;47.418;18.882;2023-05-07T08:20:18;18.00;99.90
38380;DHT22;38377;47.418;18.882;2023-05-07T08:22:44;18.00;99.90
38380;DHT22;38377;47.418;18.882;2023-05-07T08:25:10;18.10;99.90
38380;DHT22;38377;47.418;18.882;2023-05-07T08:27:36;18.00;99.90
38380;DHT22;38377;47.418;18.882;2023-05-07T08:30:03;18.10;99.90
38380;DHT22;38377;47.418;18.882;2023-05-07T08:32:29;18.10;99.90
38380;DHT22;38377;47.418;18.882;2023-05-07T08:34:54;18.10;99.90
38380;DHT22;38377;47.418;18.882;2023-05-07T08:37:20;18.10;99.90
38380;DHT22;38377;47.418;18.882;2023-05-07T08:39:46;18.10;99.90
38380;DHT22;38377;47.418;18.882;2023-05-07T08:42:12;18.20;99.90
38380;DHT22;38377;47.418;18.882;2023-05-07T08:44:41;18.10;99.90
38380;DHT22;38377;47.418;18.882;2023-05-07T08:47:11;18.30;99.90
38380;DHT22;38377;47.418;18.882;2023-05-07T08:49:36;18.40;99.90
38380;DHT22;38377;47.418;18.882;2023-05-07T08:52:02;18.40;99.90
38380;DHT22;38377;47.418;18.882;2023-05-07T08:54:29;18.50;99.90
38380;DHT22;38377;47.418;18.882;2023-05-07T08:56:55;18.70;99.90
38380;DHT22;38377;47.418;18.882;2023-05-07T08:59:20;18.80;99.90
38380;DHT22;38377;47.418;18.882;2023-05-07T09:01:46;18.90;99.90
38380;DHT22;38377;47.418;18.882;2023-05-07T09:04:12;19.30;99.90
38380;DHT22;38377;47.418;18.882;2023-05-07T09:06:38;19.70;99.90
38380;DHT22;38377;47.418;18.882;2023-05-07T09:09:07;19.80;99.90
38380;DHT22;38377;47.418;18.882;2023-05-07T09:11:33;19.80;99.90
38380;DHT22;38377;47.418;18.882;2023-05-07T09:13:58;19.80;99.90
38380;DHT22;38377;47.418;18.882;2023-05-07T09:16:29;19.80;99.90
38380;DHT22;38377;47.418;18.882;2023-05-07T09:18:58;19.80;99.90
38380;DHT22;38377;47.418;18.882;2023-05-07T09:21:25;20.00;99.90
38380;DHT22;38377;47.418;18.882;2023-05-07T09:23:55;20.40;99.90
38380;DHT22;38377;47.418;18.882;2023-05-07T09:26:22;20.90;99.90
38380;DHT22;38377;47.418;18.882;2023-05-07T09:28:47;21.40;99.90
38380;DHT22;38377;47.418;18.882;2023-05-07T09:31:13;21.40;99.90
38380;DHT22;38377;47.418;18.882;2023-05-07T09:33:40;21.60;99.90
38380;DHT22;38377;47.418;18.882;2023-05-07T09:36:07;21.50;99.90
38380;DHT22;38377;47.418;18.882;2023-05-07T09:38:33;21.80;99.90
38380;DHT22;38377;47.418;18.882;2023-05-07T09:43:33;22.30;98.30
38380;DHT22;38377;47.418;18.882;2023-05-07T09:46:12;22.00;96.30
38380;DHT22;38377;47.418;18.882;2023-05-07T09:48:39;21.60;97.30
38380;DHT22;38377;47.418;18.882;2023-05-07T09:51:29;21.20;97.40
38380;DHT22;38377;47.418;18.882;2023-05-07T09:53:57;20.80;98.60
38380;DHT22;38377;47.418;18.882;2023-05-07T09:56:25;20.50;99.30
38380;DHT22;38377;47.418;18.882;2023-05-07T09:58:53;20.40;99.90
38380;DHT22;38377;47.418;18.882;2023-05-07T10:01:19;20.20;99.90
38380;DHT22;38377;47.418;18.882;2023-05-07T10:03:48;20.10;99.90
38380;DHT22;38377;47.418;18.882;2023-05-07T10:06:15;20.00;99.90
38380;DHT22;38377;47.418;18.882;2023-05-07T10:08:43;19.80;99.90
38380;DHT22;38377;47.418;18.882;2023-05-07T10:11:09;19.80;99.90
38380;DHT22;38377;47.418;18.882;2023-05-07T10:13:35;19.70;99.90
38380;DHT22;38377;47.418;18.882;2023-05-07T10:16:05;19.60;99.90
38380;DHT22;38377;47.418;18.882;2023-05-07T10:18:31;19.50;99.90
38380;DHT22;38377;47.418;18.882;2023-05-07T10:21:20;19.50;99.90
38380;DHT22;38377;47.418;18.882;2023-05-07T10:23:53;19.50;99.90
38380;DHT22;38377;47.418;18.882;2023-05-07T10:26:21;19.60;99.90
38380;DHT22;38377;47.418;18.882;2023-05-07T10:28:53;19.60;99.90
38380;DHT22;38377;47.418;18.882;2023-05-07T10:34:20;19.70;99.90
38380;DHT22;38377;47.418;18.882;2023-05-07T10:36:47;19.80;99.90
38380;DHT22;38377;47.418;18.882;2023-05-07T10:39:14;19.80;99.90
38380;DHT22;38377;47.418;18.882;2023-05-07T10:41:39;19.90;99.90
38380;DHT22;38377;47.418;18.882;2023-05-07T10:44:05;20.00;99.90
38380;DHT22;38377;47.418;18.882;2023-05-07T10:46:31;20.00;98.70
38380;DHT22;38377;47.418;18.882;2023-05-07T10:51:27;19.90;99.40
38380;DHT22;38377;47.418;18.882;2023-05-07T10:56:38;20.20;99.60
38380;DHT22;38377;47.418;18.882;2023-05-07T10:59:30;20.70;99.90
38380;DHT22;38377;47.418;18.882;2023-05-07T11:02:01;21.20;99.10
38380;DHT22;38377;47.418;18.882;2023-05-07T11:04:32;21.60;99.00
38380;DHT22;38377;47.418;18.882;2023-05-07T11:10:00;22.10;95.30
38380;DHT22;38377;47.418;18.882;2023-05-07T11:15:14;22.20;94.30
38380;DHT22;38377;47.418;18.882;2023-05-07T11:17:54;22.40;94.00
38380;DHT22;38377;47.418;18.882;2023-05-07T11:20:20;22.40;90.80
38380;DHT22;38377;47.418;18.882;2023-05-07T11:22:47;22.10;90.40
38380;DHT22;38377;47.418;18.882;2023-05-07T11:25:18;22.00;91.90
38380;DHT22;38377;47.418;18.882;2023-05-07T11:27:47;21.90;90.60
38380;DHT22;38377;47.418;18.882;2023-05-07T11:30:18;22.00;90.00
38380;DHT22;38377;47.418;18.882;2023-05-07T11:32:47;22.00;87.50
38380;DHT22;38377;47.418;18.882;2023-05-07T11:35:15;22.30;87.70
38380;DHT22;38377;47.418;18.882;2023-05-07T11:37:41;22.40;84.90
38380;DHT22;38377;47.418;18.882;2023-05-07T11:40:08;22.30;84.90
38380;DHT22;38377;47.418;18.882;2023-05-07T11:42:37;22.10;85.20
38380;DHT22;38377;47.418;18.882;2023-05-07T11:45:06;22.10;87.20
38380;DHT22;38377;47.418;18.882;2023-05-07T11:47:32;22.30;83.70
38380;DHT22;38377;47.418;18.882;2023-05-07T11:50:05;22.50;85.40
38380;DHT22;38377;47.418;18.882;2023-05-07T11:52:31;22.90;84.10
38380;DHT22;38377;47.418;18.882;2023-05-07T11:54:58;23.10;81.60
38380;DHT22;38377;47.418;18.882;2023-05-07T11:57:26;23.20;81.70
38380;DHT22;38377;47.418;18.882;2023-05-07T11:59:58;23.20;80.40
38380;DHT22;38377;47.418;18.882;2023-05-07T12:02:25;23.40;82.60
38380;DHT22;38377;47.418;18.882;2023-05-07T12:04:51;23.50;79.70
38380;DHT22;38377;47.418;18.882;2023-05-07T12:07:17;23.50;79.70
38380;DHT22;38377;47.418;18.882;2023-05-07T12:09:44;23.50;77.20
38380;DHT22;38377;47.418;18.882;2023-05-07T12:12:11;23.80;73.10
38380;DHT22;38377;47.418;18.882;2023-05-07T12:14:44;23.70;74.80
38380;DHT22;38377;47.418;18.882;2023-05-07T12:17:11;23.70;75.20
38380;DHT22;38377;47.418;18.882;2023-05-07T12:19:39;23.50;76.20
38380;DHT22;38377;47.418;18.882;2023-05-07T12:22:07;23.40;78.40
38380;DHT22;38377;47.418;18.882;2023-05-07T12:25:02;23.80;79.60
38380;DHT22;38377;47.418;18.882;2023-05-07T12:27:28;23.80;77.80
38380;DHT22;38377;47.418;18.882;2023-05-07T12:29:54;23.80;76.60
38380;DHT22;38377;47.418;18.882;2023-05-07T12:32:21;23.80;77.50
38380;DHT22;38377;47.418;18.882;2023-05-07T12:34:50;23.80;77.20
38380;DHT22;38377;47.418;18.882;2023-05-07T12:37:16;23.90;77.70
38380;DHT22;38377;47.418;18.882;2023-05-07T12:39:48;23.50;78.00
38380;DHT22;38377;47.418;18.882;2023-05-07T12:42:20;22.70;79.70
38380;DHT22;38377;47.418;18.882;2023-05-07T12:44:51;22.20;82.80
38380;DHT22;38377;47.418;18.882;2023-05-07T12:47:17;21.80;83.50
38380;DHT22;38377;47.418;18.882;2023-05-07T12:49:43;21.50;84.50
38380;DHT22;38377;47.418;18.882;2023-05-07T12:52:11;21.70;84.90
38380;DHT22;38377;47.418;18.882;2023-05-07T12:54:38;22.20;84.20
38380;DHT22;38377;47.418;18.882;2023-05-07T12:57:08;22.60;81.10
38380;DHT22;38377;47.418;18.882;2023-05-07T12:59:38;22.90;82.40
38380;DHT22;38377;47.418;18.882;2023-05-07T13:02:05;23.20;79.20
38380;DHT22;38377;47.418;18.882;2023-05-07T13:04:31;23.40;73.90
38380;DHT22;38377;47.418;18.882;2023-05-07T13:06:57;23.40;73.60
38380;DHT22;38377;47.418;18.882;2023-05-07T13:09:23;23.50;75.50
38380;DHT22;38377;47.418;18.882;2023-05-07T13:11:48;23.20;76.50
38380;DHT22;38377;47.418;18.882;2023-05-07T13:14:15;22.50;79.00
38380;DHT22;38377;47.418;18.882;2023-05-07T13:16:40;22.10;81.10
38380;DHT22;38377;47.418;18.882;2023-05-07T13:19:06;22.20;80.30
38380;DHT22;38377;47.418;18.882;2023-05-07T13:21:32;22.50;81.10
38380;DHT22;38377;47.418;18.882;2023-05-07T13:23:58;22.70;78.80
38380;DHT22;38377;47.418;18.882;2023-05-07T13:26:27;22.90;78.50
38380;DHT22;38377;47.418;18.882;2023-05-07T13:28:54;22.90;79.20
38380;DHT22;38377;47.418;18.882;2023-05-07T13:31:20;23.10;77.20
38380;DHT22;38377;47.418;18.882;2023-05-07T13:33:46;23.20;76.60
38380;DHT22;38377;47.418;18.882;2023-05-07T13:36:12;23.10;78.20
38380;DHT22;38377;47.418;18.882;2023-05-07T13:38:38;23.00;79.50
38380;DHT22;38377;47.418;18.882;2023-05-07T13:41:04;22.90;78.50
38380;DHT22;38377;47.418;18.882;2023-05-07T13:43:31;23.00;80.10
38380;DHT22;38377;47.418;18.882;2023-05-07T13:45:59;23.10;79.10
38380;DHT22;38377;47.418;18.882;2023-05-07T13:48:25;23.10;76.30
38380;DHT22;38377;47.418;18.882;2023-05-07T13:50:51;23.10;74.60
38380;DHT22;38377;47.418;18.882;2023-05-07T13:53:17;23.00;76.00
38380;DHT22;38377;47.418;18.882;2023-05-07T13:55:44;23.00;78.20
38380;DHT22;38377;47.418;18.882;2023-05-07T13:58:10;22.80;79.20
38380;DHT22;38377;47.418;18.882;2023-05-07T14:00:36;22.40;79.90
38380;DHT22;38377;47.418;18.882;2023-05-07T14:03:01;22.10;77.60
38380;DHT22;38377;47.418;18.882;2023-05-07T14:05:27;21.90;79.00
38380;DHT22;38377;47.418;18.882;2023-05-07T14:07:54;22.10;78.40
38380;DHT22;38377;47.418;18.882;2023-05-07T14:10:20;22.30;78.80
38380;DHT22;38377;47.418;18.882;2023-05-07T14:12:46;22.60;76.90
38380;DHT22;38377;47.418;18.882;2023-05-07T14:15:12;22.70;75.60
38380;DHT22;38377;47.418;18.882;2023-05-07T14:17:38;22.90;76.60
38380;DHT22;38377;47.418;18.882;2023-05-07T14:20:04;23.00;75.70
38380;DHT22;38377;47.418;18.882;2023-05-07T14:22:31;23.10;75.30
38380;DHT22;38377;47.418;18.882;2023-05-07T14:24:57;23.10;74.90
38380;DHT22;38377;47.418;18.882;2023-05-07T14:27:23;23.10;75.30
38380;DHT22;38377;47.418;18.882;2023-05-07T14:29:48;23.10;74.60
38380;DHT22;38377;47.418;18.882;2023-05-07T14:32:17;23.10;76.10
38380;DHT22;38377;47.418;18.882;2023-05-07T14:34:43;22.90;75.50
38380;DHT22;38377;47.418;18.882;2023-05-07T14:37:09;22.70;75.40
38380;DHT22;38377;47.418;18.882;2023-05-07T14:39:35;22.60;77.00
38380;DHT22;38377;47.418;18.882;2023-05-07T14:42:01;22.60;75.80
38380;DHT22;38377;47.418;18.882;2023-05-07T14:44:27;22.40;77.30
38380;DHT22;38377;47.418;18.882;2023-05-07T14:46:52;22.10;77.30
38380;DHT22;38377;47.418;18.882;2023-05-07T14:49:18;22.00;78.10
38380;DHT22;38377;47.418;18.882;2023-05-07T14:51:44;22.10;78.20
38380;DHT22;38377;47.418;18.882;2023-05-07T14:54:11;22.10;80.70
38380;DHT22;38377;47.418;18.882;2023-05-07T14:56:38;22.20;79.40
38380;DHT22;38377;47.418;18.882;2023-05-07T14:59:04;22.20;77.40
38380;DHT22;38377;47.418;18.882;2023-05-07T15:01:30;22.00;79.00
38380;DHT22;38377;47.418;18.882;2023-05-07T15:03:55;21.90;79.00
38380;DHT22;38377;47.418;18.882;2023-05-07T15:06:21;21.90;79.50
38380;DHT22;38377;47.418;18.882;2023-05-07T15:08:47;21.80;79.90
38380;DHT22;38377;47.418;18.882;2023-05-07T15:11:16;21.90;79.20
38380;DHT22;38377;47.418;18.882;2023-05-07T15:13:42;21.80;80.00
38380;DHT22;38377;47.418;18.882;2023-05-07T15:16:08;21.80;79.00
38380;DHT22;38377;47.418;18.882;2023-05-07T15:18:33;21.70;79.30
38380;DHT22;38377;47.418;18.882;2023-05-07T15:20:59;21.60;79.40
38380;DHT22;38377;47.418;18.882;2023-05-07T15:23:25;21.60;79.70
38380;DHT22;38377;47.418;18.882;2023-05-07T15:25:52;21.60;79.70
38380;DHT22;38377;47.418;18.882;2023-05-07T15:28:18;21.70;79.10